sensor_id;sensor_type;location;lat;lon;timestamp;P1;durP1;ratioP1;P2;durP2;ratioP2
1839;SDS011;920;48.944;9.148;2023-09-18T00:01:47;3.03;;;2.70;;
1839;SDS011;920;48.944;9.148;2023-09-18T00:04:16;3.60;;;2.80;;
1839;SDS011;920;48.944;9.148;2023-09-18T00:06:43;3.37;;;2.70;;
1839;SDS011;920;48.944;9.148;2023-09-18T00:09:10;3.60;;;3.30;;
1839;SDS011;920;48.944;9.148;2023-09-18T00:11:38;4.30;;;3.60;;
1839;SDS011;920;48.944;9.148;2023-09-18T00:14:07;3.47;;;3.10;;
1839;SDS011;920;48.944;9.148;2023-09-18T00:16:34;3.30;;;2.73;;
1839;SDS011;920;48.944;9.148;2023-09-18T00:19:01;7.43;;;3.53;;
1839;SDS011;920;48.944;9.148;2023-09-18T00:21:29;3.00;;;2.60;;
1839;SDS011;920;48.944;9.148;2023-09-18T00:23:56;6.53;;;3.27;;
1839;SDS011;920;48.944;9.148;2023-09-18T00:26:23;5.77;;;3.77;;
1839;SDS011;920;48.944;9.148;2023-09-18T00:28:52;3.87;;;3.47;;
1839;SDS011;920;48.944;9.148;2023-09-18T00:31:20;5.00;;;3.20;;
1839;SDS011;920;48.944;9.148;2023-09-18T00:33:46;4.03;;;3.13;;
1839;SDS011;920;48.944;9.148;2023-09-18T00:36:13;3.50;;;3.10;;
1839;SDS011;920;48.944;9.148;2023-09-18T00:38:40;4.73;;;3.07;;
1839;SDS011;920;48.944;9.148;2023-09-18T00:41:07;4.40;;;3.17;;
1839;SDS011;920;48.944;9.148;2023-09-18T00:43:33;3.33;;;2.90;;
1839;SDS011;920;48.944;9.148;2023-09-18T00:46:01;5.27;;;3.00;;
1839;SDS011;920;48.944;9.148;2023-09-18T00:48:29;3.20;;;2.87;;
1839;SDS011;920;48.944;9.148;2023-09-18T00:50:56;3.73;;;3.10;;
1839;SDS011;920;48.944;9.148;2023-09-18T00:53:23;5.10;;;3.17;;
1839;SDS011;920;48.944;9.148;2023-09-18T00:55:52;3.50;;;2.97;;
1839;SDS011;920;48.944;9.148;2023-09-18T00:58:20;3.53;;;3.10;;
1839;SDS011;920;48.944;9.148;2023-09-18T01:00:47;3.40;;;2.70;;
1839;SDS011;920;48.944;9.148;2023-09-18T01:03:16;3.77;;;3.17;;
1839;SDS011;920;48.944;9.148;2023-09-18T01:05:45;5.10;;;3.30;;
1839;SDS011;920;48.944;9.148;2023-09-18T01:08:11;4.97;;;3.60;;
1839;SDS011;920;48.944;9.148;2023-09-18T01:10:41;5.10;;;3.40;;
1839;SDS011;920;48.944;9.148;2023-09-18T01:13:15;3.67;;;3.27;;
1839;SDS011;920;48.944;9.148;2023-09-18T01:15:48;4.07;;;3.20;;
1839;SDS011;920;48.944;9.148;2023-09-18T01:18:16;4.57;;;3.50;;
1839;SDS011;920;48.944;9.148;2023-09-18T01:20:44;3.27;;;2.97;;
1839;SDS011;920;48.944;9.148;2023-09-18T01:23:13;4.17;;;3.60;;
1839;SDS011;920;48.944;9.148;2023-09-18T01:25:40;6.83;;;4.23;;
1839;SDS011;920;48.944;9.148;2023-09-18T01:28:07;4.13;;;3.63;;
1839;SDS011;920;48.944;9.148;2023-09-18T01:30:34;3.47;;;3.17;;
1839;SDS011;920;48.944;9.148;2023-09-18T01:33:00;3.83;;;3.23;;
1839;SDS011;920;48.944;9.148;2023-09-18T01:35:28;3.60;;;3.10;;
1839;SDS011;920;48.944;9.148;2023-09-18T01:37:56;4.23;;;3.30;;
1839;SDS011;920;48.944;9.148;2023-09-18T01:40:23;4.50;;;3.60;;
1839;SDS011;920;48.944;9.148;2023-09-18T01:42:51;3.60;;;3.30;;
1839;SDS011;920;48.944;9.148;2023-09-18T01:45:17;3.40;;;3.10;;
1839;SDS011;920;48.944;9.148;2023-09-18T01:47:45;4.17;;;3.10;;
1839;SDS011;920;48.944;9.148;2023-09-18T01:50:11;4.20;;;3.60;;
1839;SDS011;920;48.944;9.148;2023-09-18T01:52:38;4.00;;;3.50;;
1839;SDS011;920;48.944;9.148;2023-09-18T01:55:05;4.00;;;3.20;;
1839;SDS011;920;48.944;9.148;2023-09-18T01:57:34;4.83;;;3.10;;
1839;SDS011;920;48.944;9.148;2023-09-18T02:00:01;3.90;;;3.00;;
1839;SDS011;920;48.944;9.148;2023-09-18T02:02:37;4.37;;;3.30;;
1839;SDS011;920;48.944;9.148;2023-09-18T02:05:05;4.30;;;3.17;;
1839;SDS011;920;48.944;9.148;2023-09-18T02:07:32;4.10;;;3.70;;
1839;SDS011;920;48.944;9.148;2023-09-18T02:09:59;6.30;;;3.70;;
1839;SDS011;920;48.944;9.148;2023-09-18T02:12:25;4.27;;;3.23;;
1839;SDS011;920;48.944;9.148;2023-09-18T02:14:54;5.00;;;3.40;;
1839;SDS011;920;48.944;9.148;2023-09-18T02:17:22;5.00;;;3.03;;
1839;SDS011;920;48.944;9.148;2023-09-18T02:19:49;4.57;;;3.37;;
1839;SDS011;920;48.944;9.148;2023-09-18T02:22:16;7.63;;;3.73;;
1839;SDS011;920;48.944;9.148;2023-09-18T02:24:43;4.13;;;3.53;;
1839;SDS011;920;48.944;9.148;2023-09-18T02:27:09;3.80;;;3.30;;
1839;SDS011;920;48.944;9.148;2023-09-18T02:29:37;5.60;;;3.63;;
1839;SDS011;920;48.944;9.148;2023-09-18T02:32:05;4.90;;;3.60;;
1839;SDS011;920;48.944;9.148;2023-09-18T02:34:31;5.03;;;3.80;;
1839;SDS011;920;48.944;9.148;2023-09-18T02:36:58;4.37;;;3.40;;
1839;SDS011;920;48.944;9.148;2023-09-18T02:39:25;5.07;;;3.33;;
1839;SDS011;920;48.944;9.148;2023-09-18T02:41:53;4.40;;;3.40;;
1839;SDS011;920;48.944;9.148;2023-09-18T02:44:20;4.83;;;3.57;;
1839;SDS011;920;48.944;9.148;2023-09-18T02:46:47;5.37;;;3.03;;
1839;SDS011;920;48.944;9.148;2023-09-18T02:49:15;5.50;;;3.23;;
1839;SDS011;920;48.944;9.148;2023-09-18T02:51:41;5.17;;;3.30;;
1839;SDS011;920;48.944;9.148;2023-09-18T02:54:08;4.60;;;2.83;;
1839;SDS011;920;48.944;9.148;2023-09-18T02:56:35;5.50;;;3.20;;
1839;SDS011;920;48.944;9.148;2023-09-18T02:59:03;3.07;;;2.40;;
1839;SDS011;920;48.944;9.148;2023-09-18T03:01:30;5.10;;;3.50;;
1839;SDS011;920;48.944;9.148;2023-09-18T03:03:57;4.77;;;3.23;;
1839;SDS011;920;48.944;9.148;2023-09-18T03:06:26;4.63;;;3.43;;
1839;SDS011;920;48.944;9.148;2023-09-18T03:08:52;6.17;;;3.13;;
1839;SDS011;920;48.944;9.148;2023-09-18T03:11:19;3.77;;;3.23;;
1839;SDS011;920;48.944;9.148;2023-09-18T03:13:46;6.83;;;3.13;;
1839;SDS011;920;48.944;9.148;2023-09-18T03:16:15;5.43;;;3.40;;
1839;SDS011;920;48.944;9.148;2023-09-18T03:18:43;5.23;;;3.03;;
1839;SDS011;920;48.944;9.148;2023-09-18T03:21:09;5.93;;;3.80;;
1839;SDS011;920;48.944;9.148;2023-09-18T03:23:38;4.40;;;3.03;;
1839;SDS011;920;48.944;9.148;2023-09-18T03:26:05;5.40;;;3.30;;
1839;SDS011;920;48.944;9.148;2023-09-18T03:28:32;6.80;;;3.43;;
1839;SDS011;920;48.944;9.148;2023-09-18T03:30:59;5.80;;;3.40;;
1839;SDS011;920;48.944;9.148;2023-09-18T03:33:26;4.80;;;2.80;;
1839;SDS011;920;48.944;9.148;2023-09-18T03:35:53;8.30;;;3.37;;
1839;SDS011;920;48.944;9.148;2023-09-18T03:38:25;4.93;;;3.07;;
1839;SDS011;920;48.944;9.148;2023-09-18T03:40:54;3.40;;;2.87;;
1839;SDS011;920;48.944;9.148;2023-09-18T03:43:21;4.57;;;2.90;;
1839;SDS011;920;48.944;9.148;2023-09-18T03:45:48;5.80;;;3.00;;
1839;SDS011;920;48.944;9.148;2023-09-18T03:48:15;4.23;;;2.67;;
1839;SDS011;920;48.944;9.148;2023-09-18T03:50:42;4.00;;;3.00;;
1839;SDS011;920;48.944;9.148;2023-09-18T03:53:09;4.20;;;2.60;;
1839;SDS011;920;48.944;9.148;2023-09-18T03:55:36;3.20;;;2.80;;
1839;SDS011;920;48.944;9.148;2023-09-18T03:58:04;4.70;;;3.00;;
1839;SDS011;920;48.944;9.148;2023-09-18T04:00:31;3.90;;;3.13;;
1839;SDS011;920;48.944;9.148;2023-09-18T04:02:58;4.90;;;3.20;;
1839;SDS011;920;48.944;9.148;2023-09-18T04:05:26;5.20;;;3.13;;
1839;SDS011;920;48.944;9.148;2023-09-18T04:07:55;3.93;;;2.93;;
1839;SDS011;920;48.944;9.148;2023-09-18T04:10:21;4.03;;;2.60;;
1839;SDS011;920;48.944;9.148;2023-09-18T04:12:48;5.13;;;3.20;;
1839;SDS011;920;48.944;9.148;2023-09-18T04:15:18;3.47;;;2.80;;
1839;SDS011;920;48.944;9.148;2023-09-18T04:17:46;4.60;;;2.93;;
1839;SDS011;920;48.944;9.148;2023-09-18T04:20:13;6.00;;;3.03;;
1839;SDS011;920;48.944;9.148;2023-09-18T04:22:42;4.90;;;2.90;;
1839;SDS011;920;48.944;9.148;2023-09-18T04:25:09;5.43;;;3.10;;
1839;SDS011;920;48.944;9.148;2023-09-18T04:27:36;4.63;;;3.17;;
1839;SDS011;920;48.944;9.148;2023-09-18T04:30:03;6.70;;;2.93;;
1839;SDS011;920;48.944;9.148;2023-09-18T04:32:32;3.30;;;2.60;;
1839;SDS011;920;48.944;9.148;2023-09-18T04:34:59;4.07;;;3.07;;
1839;SDS011;920;48.944;9.148;2023-09-18T04:37:26;6.53;;;3.00;;
1839;SDS011;920;48.944;9.148;2023-09-18T04:39:53;8.40;;;3.60;;
1839;SDS011;920;48.944;9.148;2023-09-18T04:42:20;4.17;;;2.73;;
1839;SDS011;920;48.944;9.148;2023-09-18T04:44:47;5.77;;;3.00;;
1839;SDS011;920;48.944;9.148;2023-09-18T04:47:14;6.37;;;2.90;;
1839;SDS011;920;48.944;9.148;2023-09-18T04:49:44;6.50;;;3.10;;
1839;SDS011;920;48.944;9.148;2023-09-18T04:52:12;5.83;;;3.40;;
1839;SDS011;920;48.944;9.148;2023-09-18T04:54:39;6.73;;;2.80;;
1839;SDS011;920;48.944;9.148;2023-09-18T04:57:06;4.90;;;2.97;;
1839;SDS011;920;48.944;9.148;2023-09-18T04:59:33;7.93;;;3.60;;
1839;SDS011;920;48.944;9.148;2023-09-18T05:02:00;6.57;;;4.00;;
1839;SDS011;920;48.944;9.148;2023-09-18T05:04:28;3.67;;;2.90;;
1839;SDS011;920;48.944;9.148;2023-09-18T05:06:57;7.10;;;2.80;;
1839;SDS011;920;48.944;9.148;2023-09-18T05:09:26;8.03;;;3.33;;
1839;SDS011;920;48.944;9.148;2023-09-18T05:11:53;6.47;;;3.50;;
1839;SDS011;920;48.944;9.148;2023-09-18T05:14:20;6.57;;;3.57;;
1839;SDS011;920;48.944;9.148;2023-09-18T05:16:46;6.93;;;4.10;;
1839;SDS011;920;48.944;9.148;2023-09-18T05:19:13;7.33;;;3.60;;
1839;SDS011;920;48.944;9.148;2023-09-18T05:21:40;6.47;;;3.60;;
1839;SDS011;920;48.944;9.148;2023-09-18T05:24:08;4.83;;;3.30;;
1839;SDS011;920;48.944;9.148;2023-09-18T05:26:35;5.40;;;3.73;;
1839;SDS011;920;48.944;9.148;2023-09-18T05:29:02;6.57;;;3.70;;
1839;SDS011;920;48.944;9.148;2023-09-18T05:31:29;5.77;;;3.17;;
1839;SDS011;920;48.944;9.148;2023-09-18T05:33:55;6.67;;;3.70;;
1839;SDS011;920;48.944;9.148;2023-09-18T05:36:22;7.67;;;4.30;;
1839;SDS011;920;48.944;9.148;2023-09-18T05:38:49;6.90;;;3.73;;
1839;SDS011;920;48.944;9.148;2023-09-18T05:41:17;6.40;;;3.37;;
1839;SDS011;920;48.944;9.148;2023-09-18T05:43:44;5.00;;;3.30;;
1839;SDS011;920;48.944;9.148;2023-09-18T05:46:11;5.40;;;3.07;;
1839;SDS011;920;48.944;9.148;2023-09-18T05:48:39;7.77;;;3.17;;
1839;SDS011;920;48.944;9.148;2023-09-18T05:51:05;6.00;;;2.73;;
1839;SDS011;920;48.944;9.148;2023-09-18T05:53:32;6.73;;;3.03;;
1839;SDS011;920;48.944;9.148;2023-09-18T05:56:00;4.10;;;2.70;;
1839;SDS011;920;48.944;9.148;2023-09-18T05:58:30;8.00;;;3.67;;
1839;SDS011;920;48.944;9.148;2023-09-18T06:00:57;6.10;;;3.50;;
1839;SDS011;920;48.944;9.148;2023-09-18T06:03:25;6.30;;;3.37;;
1839;SDS011;920;48.944;9.148;2023-09-18T06:05:52;5.37;;;2.67;;
1839;SDS011;920;48.944;9.148;2023-09-18T06:08:19;4.50;;;2.47;;
1839;SDS011;920;48.944;9.148;2023-09-18T06:10:45;9.80;;;3.00;;
1839;SDS011;920;48.944;9.148;2023-09-18T06:13:12;7.00;;;3.07;;
1839;SDS011;920;48.944;9.148;2023-09-18T06:15:40;5.60;;;2.90;;
1839;SDS011;920;48.944;9.148;2023-09-18T06:18:07;6.23;;;2.70;;
1839;SDS011;920;48.944;9.148;2023-09-18T06:20:34;7.90;;;2.87;;
1839;SDS011;920;48.944;9.148;2023-09-18T06:23:00;6.43;;;3.00;;
1839;SDS011;920;48.944;9.148;2023-09-18T06:25:29;4.90;;;2.77;;
1839;SDS011;920;48.944;9.148;2023-09-18T06:27:56;7.50;;;3.27;;
1839;SDS011;920;48.944;9.148;2023-09-18T06:30:23;9.73;;;3.53;;
1839;SDS011;920;48.944;9.148;2023-09-18T06:32:51;6.10;;;3.07;;
1839;SDS011;920;48.944;9.148;2023-09-18T06:35:18;6.93;;;3.13;;
1839;SDS011;920;48.944;9.148;2023-09-18T06:37:45;5.63;;;2.50;;
1839;SDS011;920;48.944;9.148;2023-09-18T06:40:12;5.67;;;3.23;;
1839;SDS011;920;48.944;9.148;2023-09-18T06:42:39;7.00;;;3.27;;
1839;SDS011;920;48.944;9.148;2023-09-18T06:45:07;6.63;;;3.33;;
1839;SDS011;920;48.944;9.148;2023-09-18T06:47:34;6.60;;;3.37;;
1839;SDS011;920;48.944;9.148;2023-09-18T06:50:02;7.20;;;3.07;;
1839;SDS011;920;48.944;9.148;2023-09-18T06:52:30;6.53;;;2.60;;
1839;SDS011;920;48.944;9.148;2023-09-18T06:54:57;6.00;;;2.93;;
1839;SDS011;920;48.944;9.148;2023-09-18T06:57:24;5.07;;;2.60;;
1839;SDS011;920;48.944;9.148;2023-09-18T06:59:51;8.17;;;2.70;;
1839;SDS011;920;48.944;9.148;2023-09-18T07:02:18;6.40;;;2.53;;
1839;SDS011;920;48.944;9.148;2023-09-18T07:04:44;4.37;;;2.30;;
1839;SDS011;920;48.944;9.148;2023-09-18T07:07:13;7.17;;;2.47;;
1839;SDS011;920;48.944;9.148;2023-09-18T07:09:39;4.30;;;2.50;;
1839;SDS011;920;48.944;9.148;2023-09-18T07:12:07;3.50;;;2.10;;
1839;SDS011;920;48.944;9.148;2023-09-18T07:14:35;4.40;;;2.13;;
1839;SDS011;920;48.944;9.148;2023-09-18T07:17:03;5.27;;;1.93;;
1839;SDS011;920;48.944;9.148;2023-09-18T07:19:30;4.60;;;2.37;;
1839;SDS011;920;48.944;9.148;2023-09-18T07:21:57;4.57;;;2.47;;
1839;SDS011;920;48.944;9.148;2023-09-18T07:24:25;3.60;;;2.03;;
1839;SDS011;920;48.944;9.148;2023-09-18T07:26:52;5.00;;;2.43;;
1839;SDS011;920;48.944;9.148;2023-09-18T07:29:20;4.50;;;2.00;;
1839;SDS011;920;48.944;9.148;2023-09-18T07:31:47;8.20;;;2.40;;
1839;SDS011;920;48.944;9.148;2023-09-18T07:34:14;3.67;;;2.17;;
1839;SDS011;920;48.944;9.148;2023-09-18T07:36:42;5.23;;;1.97;;
1839;SDS011;920;48.944;9.148;2023-09-18T07:39:09;4.07;;;1.87;;
1839;SDS011;920;48.944;9.148;2023-09-18T07:41:38;4.10;;;1.80;;
1839;SDS011;920;48.944;9.148;2023-09-18T07:44:05;3.53;;;1.70;;
1839;SDS011;920;48.944;9.148;2023-09-18T07:46:32;4.33;;;1.67;;
1839;SDS011;920;48.944;9.148;2023-09-18T07:48:59;4.40;;;2.00;;
1839;SDS011;920;48.944;9.148;2023-09-18T07:51:26;4.60;;;2.03;;
1839;SDS011;920;48.944;9.148;2023-09-18T07:53:52;4.93;;;1.80;;
1839;SDS011;920;48.944;9.148;2023-09-18T07:56:19;4.30;;;1.73;;
1839;SDS011;920;48.944;9.148;2023-09-18T07:58:48;3.33;;;1.70;;
1839;SDS011;920;48.944;9.148;2023-09-18T08:01:14;3.77;;;1.70;;
1839;SDS011;920;48.944;9.148;2023-09-18T08:03:42;5.13;;;1.90;;
1839;SDS011;920;48.944;9.148;2023-09-18T08:06:09;3.73;;;1.70;;
1839;SDS011;920;48.944;9.148;2023-09-18T08:08:36;3.47;;;1.67;;
1839;SDS011;920;48.944;9.148;2023-09-18T08:11:07;3.10;;;1.50;;
1839;SDS011;920;48.944;9.148;2023-09-18T08:13:34;3.60;;;1.50;;
1839;SDS011;920;48.944;9.148;2023-09-18T08:16:02;6.10;;;1.70;;
1839;SDS011;920;48.944;9.148;2023-09-18T08:18:31;3.50;;;1.80;;
1839;SDS011;920;48.944;9.148;2023-09-18T08:20:58;2.77;;;1.47;;
1839;SDS011;920;48.944;9.148;2023-09-18T08:23:25;5.90;;;2.27;;
1839;SDS011;920;48.944;9.148;2023-09-18T08:25:52;3.57;;;2.00;;
1839;SDS011;920;48.944;9.148;2023-09-18T08:28:21;6.70;;;2.10;;
1839;SDS011;920;48.944;9.148;2023-09-18T08:30:48;4.00;;;1.90;;
1839;SDS011;920;48.944;9.148;2023-09-18T08:33:16;4.10;;;1.80;;
1839;SDS011;920;48.944;9.148;2023-09-18T08:35:42;5.20;;;1.77;;
1839;SDS011;920;48.944;9.148;2023-09-18T08:38:11;5.83;;;1.70;;
1839;SDS011;920;48.944;9.148;2023-09-18T08:40:39;4.37;;;1.30;;
1839;SDS011;920;48.944;9.148;2023-09-18T08:43:07;4.87;;;2.17;;
1839;SDS011;920;48.944;9.148;2023-09-18T08:45:35;4.13;;;1.60;;
1839;SDS011;920;48.944;9.148;2023-09-18T08:48:04;3.67;;;1.40;;
1839;SDS011;920;48.944;9.148;2023-09-18T08:50:34;3.00;;;1.67;;
1839;SDS011;920;48.944;9.148;2023-09-18T08:53:01;4.57;;;1.50;;
1839;SDS011;920;48.944;9.148;2023-09-18T08:55:28;4.77;;;1.73;;
1839;SDS011;920;48.944;9.148;2023-09-18T08:57:55;4.63;;;1.53;;
1839;SDS011;920;48.944;9.148;2023-09-18T09:00:22;7.10;;;1.83;;
1839;SDS011;920;48.944;9.148;2023-09-18T09:02:49;3.40;;;1.40;;
1839;SDS011;920;48.944;9.148;2023-09-18T09:05:17;5.37;;;1.93;;
1839;SDS011;920;48.944;9.148;2023-09-18T09:07:45;4.07;;;1.00;;
1839;SDS011;920;48.944;9.148;2023-09-18T09:10:12;3.20;;;1.20;;
1839;SDS011;920;48.944;9.148;2023-09-18T09:12:50;3.33;;;1.20;;
1839;SDS011;920;48.944;9.148;2023-09-18T09:15:19;2.80;;;1.00;;
1839;SDS011;920;48.944;9.148;2023-09-18T09:17:46;4.00;;;1.30;;
1839;SDS011;920;48.944;9.148;2023-09-18T09:20:14;3.03;;;1.10;;
1839;SDS011;920;48.944;9.148;2023-09-18T09:22:43;3.00;;;1.07;;
1839;SDS011;920;48.944;9.148;2023-09-18T09:25:21;2.80;;;0.93;;
1839;SDS011;920;48.944;9.148;2023-09-18T09:27:51;4.57;;;0.90;;
1839;SDS011;920;48.944;9.148;2023-09-18T09:30:19;2.53;;;1.00;;
1839;SDS011;920;48.944;9.148;2023-09-18T09:32:47;3.43;;;0.87;;
1839;SDS011;920;48.944;9.148;2023-09-18T09:35:18;2.90;;;1.00;;
1839;SDS011;920;48.944;9.148;2023-09-18T09:37:50;2.67;;;0.80;;
1839;SDS011;920;48.944;9.148;2023-09-18T09:40:19;3.13;;;1.00;;
1839;SDS011;920;48.944;9.148;2023-09-18T09:42:46;3.37;;;1.10;;
1839;SDS011;920;48.944;9.148;2023-09-18T09:45:14;3.20;;;1.00;;
1839;SDS011;920;48.944;9.148;2023-09-18T09:47:41;2.80;;;0.93;;
1839;SDS011;920;48.944;9.148;2023-09-18T09:50:09;2.63;;;1.20;;
1839;SDS011;920;48.944;9.148;2023-09-18T09:52:42;2.47;;;0.90;;
1839;SDS011;920;48.944;9.148;2023-09-18T09:55:21;3.80;;;1.13;;
1839;SDS011;920;48.944;9.148;2023-09-18T09:57:50;2.67;;;1.20;;
1839;SDS011;920;48.944;9.148;2023-09-18T10:00:19;5.10;;;1.43;;
1839;SDS011;920;48.944;9.148;2023-09-18T10:02:56;4.03;;;1.20;;
1839;SDS011;920;48.944;9.148;2023-09-18T10:05:24;2.87;;;1.10;;
1839;SDS011;920;48.944;9.148;2023-09-18T10:07:54;3.33;;;1.47;;
1839;SDS011;920;48.944;9.148;2023-09-18T10:10:26;3.10;;;1.00;;
1839;SDS011;920;48.944;9.148;2023-09-18T10:12:57;2.20;;;0.90;;
1839;SDS011;920;48.944;9.148;2023-09-18T10:15:27;4.23;;;1.10;;
1839;SDS011;920;48.944;9.148;2023-09-18T10:17:56;2.77;;;1.30;;
1839;SDS011;920;48.944;9.148;2023-09-18T10:20:25;3.00;;;1.20;;
1839;SDS011;920;48.944;9.148;2023-09-18T10:22:56;4.10;;;1.37;;
1839;SDS011;920;48.944;9.148;2023-09-18T10:25:23;3.73;;;1.30;;
1839;SDS011;920;48.944;9.148;2023-09-18T10:27:52;2.50;;;1.00;;
1839;SDS011;920;48.944;9.148;2023-09-18T10:30:19;3.90;;;1.50;;
1839;SDS011;920;48.944;9.148;2023-09-18T10:32:48;4.57;;;1.20;;
1839;SDS011;920;48.944;9.148;2023-09-18T10:35:16;3.10;;;1.30;;
1839;SDS011;920;48.944;9.148;2023-09-18T10:37:45;2.60;;;1.10;;
1839;SDS011;920;48.944;9.148;2023-09-18T10:40:12;2.73;;;1.20;;
1839;SDS011;920;48.944;9.148;2023-09-18T10:42:40;2.60;;;1.17;;
1839;SDS011;920;48.944;9.148;2023-09-18T10:45:09;3.87;;;1.63;;
1839;SDS011;920;48.944;9.148;2023-09-18T10:47:37;4.23;;;1.70;;
1839;SDS011;920;48.944;9.148;2023-09-18T10:50:05;3.73;;;1.47;;
1839;SDS011;920;48.944;9.148;2023-09-18T10:52:33;2.00;;;1.03;;
1839;SDS011;920;48.944;9.148;2023-09-18T10:55:00;3.60;;;1.40;;
1839;SDS011;920;48.944;9.148;2023-09-18T10:57:32;3.20;;;1.40;;
1839;SDS011;920;48.944;9.148;2023-09-18T10:59:59;4.00;;;1.50;;
1839;SDS011;920;48.944;9.148;2023-09-18T11:02:28;2.60;;;1.20;;
1839;SDS011;920;48.944;9.148;2023-09-18T11:04:55;3.30;;;1.20;;
1839;SDS011;920;48.944;9.148;2023-09-18T11:07:23;3.30;;;1.20;;
1839;SDS011;920;48.944;9.148;2023-09-18T11:09:50;7.33;;;1.60;;
1839;SDS011;920;48.944;9.148;2023-09-18T11:12:17;5.43;;;1.50;;
1839;SDS011;920;48.944;9.148;2023-09-18T11:14:45;4.97;;;1.70;;
1839;SDS011;920;48.944;9.148;2023-09-18T11:20:05;3.00;;;1.40;;
1839;SDS011;920;48.944;9.148;2023-09-18T11:22:37;3.43;;;1.27;;
1839;SDS011;920;48.944;9.148;2023-09-18T11:27:59;2.73;;;1.47;;
1839;SDS011;920;48.944;9.148;2023-09-18T11:30:27;5.73;;;1.80;;
1839;SDS011;920;48.944;9.148;2023-09-18T11:32:55;3.63;;;1.30;;
1839;SDS011;920;48.944;9.148;2023-09-18T11:35:22;3.20;;;1.30;;
1839;SDS011;920;48.944;9.148;2023-09-18T11:38:02;2.63;;;1.13;;
1839;SDS011;920;48.944;9.148;2023-09-18T11:40:31;2.50;;;1.30;;
1839;SDS011;920;48.944;9.148;2023-09-18T11:45:50;2.40;;;1.30;;
1839;SDS011;920;48.944;9.148;2023-09-18T11:48:20;4.57;;;1.70;;
1839;SDS011;920;48.944;9.148;2023-09-18T11:50:51;3.00;;;1.23;;
1839;SDS011;920;48.944;9.148;2023-09-18T11:53:19;3.43;;;1.30;;
1839;SDS011;920;48.944;9.148;2023-09-18T11:55:46;5.20;;;1.73;;
1839;SDS011;920;48.944;9.148;2023-09-18T11:58:13;2.80;;;1.30;;
1839;SDS011;920;48.944;9.148;2023-09-18T12:00:40;4.03;;;1.90;;
1839;SDS011;920;48.944;9.148;2023-09-18T12:03:20;2.73;;;1.13;;
1839;SDS011;920;48.944;9.148;2023-09-18T12:05:55;2.30;;;1.20;;
1839;SDS011;920;48.944;9.148;2023-09-18T12:08:22;2.70;;;1.47;;
1839;SDS011;920;48.944;9.148;2023-09-18T12:10:51;2.20;;;1.00;;
1839;SDS011;920;48.944;9.148;2023-09-18T12:13:18;1.90;;;0.93;;
1839;SDS011;920;48.944;9.148;2023-09-18T12:15:45;3.47;;;1.37;;
1839;SDS011;920;48.944;9.148;2023-09-18T12:18:13;2.17;;;1.03;;
1839;SDS011;920;48.944;9.148;2023-09-18T12:20:48;2.73;;;1.27;;
1839;SDS011;920;48.944;9.148;2023-09-18T12:23:15;2.90;;;1.07;;
1839;SDS011;920;48.944;9.148;2023-09-18T12:25:44;3.07;;;1.20;;
1839;SDS011;920;48.944;9.148;2023-09-18T12:28:13;2.23;;;1.00;;
1839;SDS011;920;48.944;9.148;2023-09-18T12:30:40;3.50;;;0.97;;
1839;SDS011;920;48.944;9.148;2023-09-18T12:33:06;3.53;;;1.20;;
1839;SDS011;920;48.944;9.148;2023-09-18T12:35:33;4.43;;;1.20;;
1839;SDS011;920;48.944;9.148;2023-09-18T12:38:02;2.20;;;1.10;;
1839;SDS011;920;48.944;9.148;2023-09-18T12:40:40;2.73;;;0.90;;
1839;SDS011;920;48.944;9.148;2023-09-18T12:43:06;2.97;;;1.07;;
1839;SDS011;920;48.944;9.148;2023-09-18T12:45:33;2.70;;;1.00;;
1839;SDS011;920;48.944;9.148;2023-09-18T12:48:00;3.30;;;1.20;;
1839;SDS011;920;48.944;9.148;2023-09-18T12:50:28;2.50;;;1.10;;
1839;SDS011;920;48.944;9.148;2023-09-18T12:53:07;2.43;;;1.07;;
1839;SDS011;920;48.944;9.148;2023-09-18T12:55:35;2.77;;;1.00;;
1839;SDS011;920;48.944;9.148;2023-09-18T12:58:02;3.17;;;1.20;;
1839;SDS011;920;48.944;9.148;2023-09-18T13:00:32;2.47;;;1.10;;
1839;SDS011;920;48.944;9.148;2023-09-18T13:03:00;2.60;;;1.07;;
1839;SDS011;920;48.944;9.148;2023-09-18T13:05:29;2.53;;;1.10;;
1839;SDS011;920;48.944;9.148;2023-09-18T13:08:01;2.50;;;1.00;;
1839;SDS011;920;48.944;9.148;2023-09-18T13:10:30;2.70;;;1.10;;
1839;SDS011;920;48.944;9.148;2023-09-18T13:13:07;2.80;;;1.20;;
1839;SDS011;920;48.944;9.148;2023-09-18T13:15:33;3.17;;;1.40;;
1839;SDS011;920;48.944;9.148;2023-09-18T13:18:01;3.50;;;1.10;;
1839;SDS011;920;48.944;9.148;2023-09-18T13:20:35;2.00;;;1.00;;
1839;SDS011;920;48.944;9.148;2023-09-18T13:23:01;2.00;;;1.00;;
1839;SDS011;920;48.944;9.148;2023-09-18T13:25:30;2.33;;;0.80;;
1839;SDS011;920;48.944;9.148;2023-09-18T13:27:59;2.47;;;1.07;;
1839;SDS011;920;48.944;9.148;2023-09-18T13:30:27;3.53;;;1.10;;
1839;SDS011;920;48.944;9.148;2023-09-18T13:33:01;2.53;;;1.10;;
1839;SDS011;920;48.944;9.148;2023-09-18T13:35:28;1.70;;;0.93;;
1839;SDS011;920;48.944;9.148;2023-09-18T13:37:55;2.83;;;0.90;;
1839;SDS011;920;48.944;9.148;2023-09-18T13:40:22;3.80;;;1.67;;
1839;SDS011;920;48.944;9.148;2023-09-18T13:42:50;2.93;;;1.00;;
1839;SDS011;920;48.944;9.148;2023-09-18T13:45:17;2.73;;;1.20;;
1839;SDS011;920;48.944;9.148;2023-09-18T13:47:43;2.83;;;1.10;;
1839;SDS011;920;48.944;9.148;2023-09-18T13:50:10;4.23;;;1.30;;
1839;SDS011;920;48.944;9.148;2023-09-18T13:52:38;2.23;;;1.00;;
1839;SDS011;920;48.944;9.148;2023-09-18T13:55:05;2.70;;;1.13;;
1839;SDS011;920;48.944;9.148;2023-09-18T13:57:32;2.10;;;1.00;;
1839;SDS011;920;48.944;9.148;2023-09-18T14:00:01;2.30;;;0.97;;
1839;SDS011;920;48.944;9.148;2023-09-18T14:02:37;2.53;;;1.10;;
1839;SDS011;920;48.944;9.148;2023-09-18T14:05:04;3.63;;;1.20;;
1839;SDS011;920;48.944;9.148;2023-09-18T14:07:32;2.10;;;1.10;;
1839;SDS011;920;48.944;9.148;2023-09-18T14:09:58;2.23;;;1.20;;
1839;SDS011;920;48.944;9.148;2023-09-18T14:12:29;2.60;;;0.97;;
1839;SDS011;920;48.944;9.148;2023-09-18T14:14:57;2.33;;;0.93;;
1839;SDS011;920;48.944;9.148;2023-09-18T14:17:25;2.00;;;1.00;;
1839;SDS011;920;48.944;9.148;2023-09-18T14:19:52;1.90;;;0.90;;
1839;SDS011;920;48.944;9.148;2023-09-18T14:22:19;2.30;;;1.00;;
1839;SDS011;920;48.944;9.148;2023-09-18T14:24:46;2.07;;;0.90;;
1839;SDS011;920;48.944;9.148;2023-09-18T14:27:13;2.30;;;1.10;;
1839;SDS011;920;48.944;9.148;2023-09-18T14:29:40;2.40;;;0.97;;
1839;SDS011;920;48.944;9.148;2023-09-18T14:32:06;2.50;;;1.03;;
1839;SDS011;920;48.944;9.148;2023-09-18T14:34:35;1.97;;;0.90;;
1839;SDS011;920;48.944;9.148;2023-09-18T14:37:01;3.13;;;1.10;;
1839;SDS011;920;48.944;9.148;2023-09-18T14:39:29;3.20;;;0.97;;
1839;SDS011;920;48.944;9.148;2023-09-18T14:41:56;3.30;;;0.80;;
1839;SDS011;920;48.944;9.148;2023-09-18T14:44:23;2.90;;;1.00;;
1839;SDS011;920;48.944;9.148;2023-09-18T14:46:50;2.63;;;1.13;;
1839;SDS011;920;48.944;9.148;2023-09-18T14:49:18;2.20;;;1.10;;
1839;SDS011;920;48.944;9.148;2023-09-18T14:51:46;1.80;;;0.90;;
1839;SDS011;920;48.944;9.148;2023-09-18T14:54:14;2.80;;;1.20;;
1839;SDS011;920;48.944;9.148;2023-09-18T14:56:41;2.73;;;1.00;;
1839;SDS011;920;48.944;9.148;2023-09-18T14:59:10;2.87;;;1.37;;
1839;SDS011;920;48.944;9.148;2023-09-18T15:01:37;2.67;;;1.20;;
1839;SDS011;920;48.944;9.148;2023-09-18T15:04:04;2.10;;;1.10;;
1839;SDS011;920;48.944;9.148;2023-09-18T15:06:31;2.20;;;1.10;;
1839;SDS011;920;48.944;9.148;2023-09-18T15:08:59;2.70;;;1.30;;
1839;SDS011;920;48.944;9.148;2023-09-18T15:11:28;3.30;;;1.30;;
1839;SDS011;920;48.944;9.148;2023-09-18T15:13:54;2.00;;;0.93;;
1839;SDS011;920;48.944;9.148;2023-09-18T15:16:21;2.33;;;1.27;;
1839;SDS011;920;48.944;9.148;2023-09-18T15:18:48;2.53;;;1.20;;
1839;SDS011;920;48.944;9.148;2023-09-18T15:21:15;2.87;;;1.00;;
1839;SDS011;920;48.944;9.148;2023-09-18T15:23:42;2.20;;;1.10;;
1839;SDS011;920;48.944;9.148;2023-09-18T15:26:10;2.27;;;0.93;;
1839;SDS011;920;48.944;9.148;2023-09-18T15:28:37;2.40;;;0.97;;
1839;SDS011;920;48.944;9.148;2023-09-18T15:31:03;2.63;;;1.30;;
1839;SDS011;920;48.944;9.148;2023-09-18T15:33:30;2.63;;;1.03;;
1839;SDS011;920;48.944;9.148;2023-09-18T15:35:57;1.80;;;0.93;;
1839;SDS011;920;48.944;9.148;2023-09-18T15:38:24;2.60;;;1.50;;
1839;SDS011;920;48.944;9.148;2023-09-18T15:40:52;1.97;;;1.00;;
1839;SDS011;920;48.944;9.148;2023-09-18T15:43:20;2.10;;;0.93;;